< < Back
Terminal Aerodrome Forecast


Current Version              Previous Versions:   1  2  3  4  5  6  7  8  9  

Terminal Aerodrome Forecast

136
FTUS42 KGSP 162300
TAFAVL
TAF
KAVL 162320Z 1700/1724 16008KT P6SM SKC
     FM170300 16004KT P6SM SKC
     FM171500 15009KT P6SM FEW250=

Latest METAR

562
SAUS70 KWBC 170400 RRJ
MTRAVL
METAR KAVL 170354Z AUTO 00000KT 10SM CLR 04/M02 A3038 RMK AO2 SLP290
T00391022


USA.gov is the U.S. government's official web portal to all federal, state and local government web resources and services.